Terminal Aerodrome Forecast
Issued by NWS

Home | Current Version | Previous Version | Text Only | Print | Product List | Glossary On
Versions: 1 2 3 4 5 6 7 8 9 10 11 12 13
000
FTUS46 KLOX 011700
TAFSBA
TAF
KSBA 011727Z 0118/0218 15006KT P6SM FEW011 SCT020
     FM012100 24007KT P6SM SKC
     FM020200 VRB03KT P6SM SKC=

USA.gov is the U.S. government's official web portal to all federal, state and local government web resources and services.